sensor_id;sensor_type;location;lat;lon;timestamp;P1;P2;P0
49644;PMS5003;36494;50.730;-1.932;2023-03-03T00:01:18;22;20;
49644;PMS5003;36494;50.730;-1.932;2023-03-03T00:03:44;15;15;
49644;PMS5003;36494;50.730;-1.932;2023-03-03T00:06:10;19;18;
49644;PMS5003;36494;50.730;-1.932;2023-03-03T00:08:34;22;20;
49644;PMS5003;36494;50.730;-1.932;2023-03-03T00:11:00;16;16;
49644;PMS5003;36494;50.730;-1.932;2023-03-03T00:13:26;20;17;
49644;PMS5003;36494;50.730;-1.932;2023-03-03T00:15:51;18;15;
49644;PMS5003;36494;50.730;-1.932;2023-03-03T00:18:20;17;17;
49644;PMS5003;36494;50.730;-1.932;2023-03-03T00:20:45;19;19;
49644;PMS5003;36494;50.730;-1.932;2023-03-03T00:23:14;17;16;
49644;PMS5003;36494;50.730;-1.932;2023-03-03T00:25:32;16;16;
49644;PMS5003;36494;50.730;-1.932;2023-03-03T00:27:59;15;14;
49644;PMS5003;36494;50.730;-1.932;2023-03-03T00:30:24;18;17;
49644;PMS5003;36494;50.730;-1.932;2023-03-03T00:32:48;13;13;
49644;PMS5003;36494;50.730;-1.932;2023-03-03T00:35:23;14;13;
49644;PMS5003;36494;50.730;-1.932;2023-03-03T00:37:39;16;15;
49644;PMS5003;36494;50.730;-1.932;2023-03-03T00:40:15;18;16;
49644;PMS5003;36494;50.730;-1.932;2023-03-03T00:42:30;18;16;
49644;PMS5003;36494;50.730;-1.932;2023-03-03T00:44:56;15;13;
49644;PMS5003;36494;50.730;-1.932;2023-03-03T00:47:23;14;14;
49644;PMS5003;36494;50.730;-1.932;2023-03-03T00:49:47;15;14;
49644;PMS5003;36494;50.730;-1.932;2023-03-03T00:52:12;15;15;
49644;PMS5003;36494;50.730;-1.932;2023-03-03T00:54:38;15;14;
49644;PMS5003;36494;50.730;-1.932;2023-03-03T00:57:04;16;15;
49644;PMS5003;36494;50.730;-1.932;2023-03-03T00:59:29;14;13;
49644;PMS5003;36494;50.730;-1.932;2023-03-03T01:01:54;13;13;
49644;PMS5003;36494;50.730;-1.932;2023-03-03T01:04:20;15;15;
49644;PMS5003;36494;50.730;-1.932;2023-03-03T01:06:46;14;13;
49644;PMS5003;36494;50.730;-1.932;2023-03-03T01:09:11;15;15;
49644;PMS5003;36494;50.730;-1.932;2023-03-03T01:11:36;15;15;
49644;PMS5003;36494;50.730;-1.932;2023-03-03T01:14:01;16;15;
49644;PMS5003;36494;50.730;-1.932;2023-03-03T01:16:27;13;13;
49644;PMS5003;36494;50.730;-1.932;2023-03-03T01:18:52;13;12;
49644;PMS5003;36494;50.730;-1.932;2023-03-03T01:21:18;15;14;
49644;PMS5003;36494;50.730;-1.932;2023-03-03T01:23:43;13;13;
49644;PMS5003;36494;50.730;-1.932;2023-03-03T01:26:08;13;12;
49644;PMS5003;36494;50.730;-1.932;2023-03-03T01:28:34;12;12;
49644;PMS5003;36494;50.730;-1.932;2023-03-03T01:30:59;13;13;
49644;PMS5003;36494;50.730;-1.932;2023-03-03T01:33:24;15;13;
49644;PMS5003;36494;50.730;-1.932;2023-03-03T01:35:50;18;15;
49644;PMS5003;36494;50.730;-1.932;2023-03-03T01:38:15;14;13;
49644;PMS5003;36494;50.730;-1.932;2023-03-03T01:40:40;16;16;
49644;PMS5003;36494;50.730;-1.932;2023-03-03T01:43:06;15;15;
49644;PMS5003;36494;50.730;-1.932;2023-03-03T01:45:31;14;14;
49644;PMS5003;36494;50.730;-1.932;2023-03-03T01:47:58;21;19;
49644;PMS5003;36494;50.730;-1.932;2023-03-03T01:50:26;15;14;
49644;PMS5003;36494;50.730;-1.932;2023-03-03T01:52:47;15;15;
49644;PMS5003;36494;50.730;-1.932;2023-03-03T01:55:14;17;15;
49644;PMS5003;36494;50.730;-1.932;2023-03-03T01:57:38;16;15;
49644;PMS5003;36494;50.730;-1.932;2023-03-03T02:00:04;16;15;
49644;PMS5003;36494;50.730;-1.932;2023-03-03T02:02:28;14;14;
49644;PMS5003;36494;50.730;-1.932;2023-03-03T02:04:53;17;15;
49644;PMS5003;36494;50.730;-1.932;2023-03-03T02:07:19;17;17;
49644;PMS5003;36494;50.730;-1.932;2023-03-03T02:09:47;20;18;
49644;PMS5003;36494;50.730;-1.932;2023-03-03T02:12:10;16;16;
49644;PMS5003;36494;50.730;-1.932;2023-03-03T02:14:35;17;17;
49644;PMS5003;36494;50.730;-1.932;2023-03-03T02:17:00;17;17;
49644;PMS5003;36494;50.730;-1.932;2023-03-03T02:19:27;16;15;
49644;PMS5003;36494;50.730;-1.932;2023-03-03T02:21:51;16;15;
49644;PMS5003;36494;50.730;-1.932;2023-03-03T02:24:17;17;17;
49644;PMS5003;36494;50.730;-1.932;2023-03-03T02:26:42;20;18;
49644;PMS5003;36494;50.730;-1.932;2023-03-03T02:29:08;18;15;
49644;PMS5003;36494;50.730;-1.932;2023-03-03T02:31:33;17;15;
49644;PMS5003;36494;50.730;-1.932;2023-03-03T02:33:58;19;18;
49644;PMS5003;36494;50.730;-1.932;2023-03-03T02:36:24;17;16;
49644;PMS5003;36494;50.730;-1.932;2023-03-03T02:38:50;17;17;
49644;PMS5003;36494;50.730;-1.932;2023-03-03T02:41:15;16;16;
49644;PMS5003;36494;50.730;-1.932;2023-03-03T02:43:41;18;17;
49644;PMS5003;36494;50.730;-1.932;2023-03-03T02:46:06;20;18;
49644;PMS5003;36494;50.730;-1.932;2023-03-03T02:48:31;20;19;
49644;PMS5003;36494;50.730;-1.932;2023-03-03T02:50:57;18;18;
49644;PMS5003;36494;50.730;-1.932;2023-03-03T02:53:22;18;18;
49644;PMS5003;36494;50.730;-1.932;2023-03-03T02:55:48;20;20;
49644;PMS5003;36494;50.730;-1.932;2023-03-03T02:58:13;23;20;
49644;PMS5003;36494;50.730;-1.932;2023-03-03T03:00:38;17;17;
49644;PMS5003;36494;50.730;-1.932;2023-03-03T03:03:04;30;25;
49644;PMS5003;36494;50.730;-1.932;2023-03-03T03:05:29;20;19;
49644;PMS5003;36494;50.730;-1.932;2023-03-03T03:07:55;18;17;
49644;PMS5003;36494;50.730;-1.932;2023-03-03T03:10:20;20;18;
49644;PMS5003;36494;50.730;-1.932;2023-03-03T03:12:45;16;16;
49644;PMS5003;36494;50.730;-1.932;2023-03-03T03:15:11;19;19;
49644;PMS5003;36494;50.730;-1.932;2023-03-03T03:17:36;17;17;
49644;PMS5003;36494;50.730;-1.932;2023-03-03T03:20:01;17;16;
49644;PMS5003;36494;50.730;-1.932;2023-03-03T03:22:27;19;17;
49644;PMS5003;36494;50.730;-1.932;2023-03-03T03:24:52;20;19;
49644;PMS5003;36494;50.730;-1.932;2023-03-03T03:27:17;20;19;
49644;PMS5003;36494;50.730;-1.932;2023-03-03T03:29:43;21;20;
49644;PMS5003;36494;50.730;-1.932;2023-03-03T03:32:08;14;13;
49644;PMS5003;36494;50.730;-1.932;2023-03-03T03:34:34;19;18;
49644;PMS5003;36494;50.730;-1.932;2023-03-03T03:37:00;18;18;
49644;PMS5003;36494;50.730;-1.932;2023-03-03T03:39:25;19;18;
49644;PMS5003;36494;50.730;-1.932;2023-03-03T03:41:50;17;17;
49644;PMS5003;36494;50.730;-1.932;2023-03-03T03:44:16;19;17;
49644;PMS5003;36494;50.730;-1.932;2023-03-03T03:46:41;20;19;
49644;PMS5003;36494;50.730;-1.932;2023-03-03T03:49:07;17;17;
49644;PMS5003;36494;50.730;-1.932;2023-03-03T03:51:32;22;19;
49644;PMS5003;36494;50.730;-1.932;2023-03-03T03:53:57;19;19;
49644;PMS5003;36494;50.730;-1.932;2023-03-03T03:56:23;18;17;
49644;PMS5003;36494;50.730;-1.932;2023-03-03T03:58:48;19;19;
49644;PMS5003;36494;50.730;-1.932;2023-03-03T04:01:13;21;21;
49644;PMS5003;36494;50.730;-1.932;2023-03-03T04:03:38;22;21;
49644;PMS5003;36494;50.730;-1.932;2023-03-03T04:06:04;20;19;
49644;PMS5003;36494;50.730;-1.932;2023-03-03T04:08:30;18;18;
49644;PMS5003;36494;50.730;-1.932;2023-03-03T04:10:55;17;16;
49644;PMS5003;36494;50.730;-1.932;2023-03-03T04:13:21;21;20;
49644;PMS5003;36494;50.730;-1.932;2023-03-03T04:15:46;20;19;
49644;PMS5003;36494;50.730;-1.932;2023-03-03T04:18:12;20;20;
49644;PMS5003;36494;50.730;-1.932;2023-03-03T04:20:38;22;20;
49644;PMS5003;36494;50.730;-1.932;2023-03-03T04:23:02;22;22;
49644;PMS5003;36494;50.730;-1.932;2023-03-03T04:25:27;21;20;
49644;PMS5003;36494;50.730;-1.932;2023-03-03T04:27:53;22;22;
49644;PMS5003;36494;50.730;-1.932;2023-03-03T04:30:18;19;17;
49644;PMS5003;36494;50.730;-1.932;2023-03-03T04:32:44;20;19;
49644;PMS5003;36494;50.730;-1.932;2023-03-03T04:35:10;23;22;
49644;PMS5003;36494;50.730;-1.932;2023-03-03T04:37:36;21;21;
49644;PMS5003;36494;50.730;-1.932;2023-03-03T04:40:01;22;22;
49644;PMS5003;36494;50.730;-1.932;2023-03-03T04:42:26;16;16;
49644;PMS5003;36494;50.730;-1.932;2023-03-03T04:44:52;16;16;
49644;PMS5003;36494;50.730;-1.932;2023-03-03T04:47:17;17;16;
49644;PMS5003;36494;50.730;-1.932;2023-03-03T04:49:43;20;19;
49644;PMS5003;36494;50.730;-1.932;2023-03-03T04:52:08;20;20;
49644;PMS5003;36494;50.730;-1.932;2023-03-03T04:54:34;18;17;
49644;PMS5003;36494;50.730;-1.932;2023-03-03T04:57:00;20;20;
49644;PMS5003;36494;50.730;-1.932;2023-03-03T04:59:25;20;17;
49644;PMS5003;36494;50.730;-1.932;2023-03-03T05:01:51;16;15;
49644;PMS5003;36494;50.730;-1.932;2023-03-03T05:04:16;16;15;
49644;PMS5003;36494;50.730;-1.932;2023-03-03T05:06:42;17;17;
49644;PMS5003;36494;50.730;-1.932;2023-03-03T05:09:07;15;15;
49644;PMS5003;36494;50.730;-1.932;2023-03-03T05:11:32;18;18;
49644;PMS5003;36494;50.730;-1.932;2023-03-03T05:13:58;23;21;
49644;PMS5003;36494;50.730;-1.932;2023-03-03T05:16:24;19;17;
49644;PMS5003;36494;50.730;-1.932;2023-03-03T05:18:50;17;17;
49644;PMS5003;36494;50.730;-1.932;2023-03-03T05:21:15;16;16;
49644;PMS5003;36494;50.730;-1.932;2023-03-03T05:23:41;19;19;
49644;PMS5003;36494;50.730;-1.932;2023-03-03T05:26:06;17;17;
49644;PMS5003;36494;50.730;-1.932;2023-03-03T05:28:31;16;14;
49644;PMS5003;36494;50.730;-1.932;2023-03-03T05:30:56;17;16;
49644;PMS5003;36494;50.730;-1.932;2023-03-03T05:33:22;16;16;
49644;PMS5003;36494;50.730;-1.932;2023-03-03T05:35:52;15;15;
49644;PMS5003;36494;50.730;-1.932;2023-03-03T05:38:13;17;16;
49644;PMS5003;36494;50.730;-1.932;2023-03-03T05:40:38;15;15;
49644;PMS5003;36494;50.730;-1.932;2023-03-03T05:43:04;16;15;
49644;PMS5003;36494;50.730;-1.932;2023-03-03T05:45:29;16;16;
49644;PMS5003;36494;50.730;-1.932;2023-03-03T05:47:55;15;14;
49644;PMS5003;36494;50.730;-1.932;2023-03-03T05:50:21;17;17;
49644;PMS5003;36494;50.730;-1.932;2023-03-03T05:52:46;16;16;
49644;PMS5003;36494;50.730;-1.932;2023-03-03T05:55:11;17;16;
49644;PMS5003;36494;50.730;-1.932;2023-03-03T05:57:37;14;14;
49644;PMS5003;36494;50.730;-1.932;2023-03-03T06:00:02;15;15;
49644;PMS5003;36494;50.730;-1.932;2023-03-03T06:02:28;13;13;
49644;PMS5003;36494;50.730;-1.932;2023-03-03T06:04:53;15;15;
49644;PMS5003;36494;50.730;-1.932;2023-03-03T06:07:18;18;18;
49644;PMS5003;36494;50.730;-1.932;2023-03-03T06:09:43;16;15;
49644;PMS5003;36494;50.730;-1.932;2023-03-03T06:12:09;17;15;
49644;PMS5003;36494;50.730;-1.932;2023-03-03T06:14:34;18;16;
49644;PMS5003;36494;50.730;-1.932;2023-03-03T06:17:00;17;16;
49644;PMS5003;36494;50.730;-1.932;2023-03-03T06:19:25;16;15;
49644;PMS5003;36494;50.730;-1.932;2023-03-03T06:21:51;17;16;
49644;PMS5003;36494;50.730;-1.932;2023-03-03T06:24:16;17;16;
49644;PMS5003;36494;50.730;-1.932;2023-03-03T06:26:42;17;15;
49644;PMS5003;36494;50.730;-1.932;2023-03-03T06:29:07;15;15;
49644;PMS5003;36494;50.730;-1.932;2023-03-03T06:31:33;17;15;
49644;PMS5003;36494;50.730;-1.932;2023-03-03T06:33:58;16;15;
49644;PMS5003;36494;50.730;-1.932;2023-03-03T06:36:23;16;15;
49644;PMS5003;36494;50.730;-1.932;2023-03-03T06:38:48;15;15;
49644;PMS5003;36494;50.730;-1.932;2023-03-03T06:41:14;17;15;
49644;PMS5003;36494;50.730;-1.932;2023-03-03T06:43:39;18;16;
49644;PMS5003;36494;50.730;-1.932;2023-03-03T06:46:05;14;14;
49644;PMS5003;36494;50.730;-1.932;2023-03-03T06:48:31;14;13;
49644;PMS5003;36494;50.730;-1.932;2023-03-03T06:50:56;17;16;
49644;PMS5003;36494;50.730;-1.932;2023-03-03T06:53:21;17;17;
49644;PMS5003;36494;50.730;-1.932;2023-03-03T06:55:46;16;16;
49644;PMS5003;36494;50.730;-1.932;2023-03-03T06:58:12;16;15;
49644;PMS5003;36494;50.730;-1.932;2023-03-03T07:00:37;16;15;
49644;PMS5003;36494;50.730;-1.932;2023-03-03T07:03:07;16;15;
49644;PMS5003;36494;50.730;-1.932;2023-03-03T07:05:28;19;17;
49644;PMS5003;36494;50.730;-1.932;2023-03-03T07:07:53;20;18;
49644;PMS5003;36494;50.730;-1.932;2023-03-03T07:10:21;16;15;
49644;PMS5003;36494;50.730;-1.932;2023-03-03T07:12:45;19;18;
49644;PMS5003;36494;50.730;-1.932;2023-03-03T07:15:12;17;16;
49644;PMS5003;36494;50.730;-1.932;2023-03-03T07:17:36;18;17;
49644;PMS5003;36494;50.730;-1.932;2023-03-03T07:20:04;18;18;
49644;PMS5003;36494;50.730;-1.932;2023-03-03T07:22:27;16;16;
49644;PMS5003;36494;50.730;-1.932;2023-03-03T07:24:53;17;16;
49644;PMS5003;36494;50.730;-1.932;2023-03-03T07:27:20;15;15;
49644;PMS5003;36494;50.730;-1.932;2023-03-03T07:29:44;15;14;
49644;PMS5003;36494;50.730;-1.932;2023-03-03T07:32:15;18;17;
49644;PMS5003;36494;50.730;-1.932;2023-03-03T07:34:35;16;16;
49644;PMS5003;36494;50.730;-1.932;2023-03-03T07:37:01;17;15;
49644;PMS5003;36494;50.730;-1.932;2023-03-03T07:39:28;15;15;
49644;PMS5003;36494;50.730;-1.932;2023-03-03T07:41:51;16;16;
49644;PMS5003;36494;50.730;-1.932;2023-03-03T07:44:18;19;18;
49644;PMS5003;36494;50.730;-1.932;2023-03-03T07:46:42;32;29;
49644;PMS5003;36494;50.730;-1.932;2023-03-03T07:49:11;26;23;
49644;PMS5003;36494;50.730;-1.932;2023-03-03T07:51:35;19;17;
49644;PMS5003;36494;50.730;-1.932;2023-03-03T07:54:00;14;14;
49644;PMS5003;36494;50.730;-1.932;2023-03-03T07:56:26;17;17;
49644;PMS5003;36494;50.730;-1.932;2023-03-03T07:58:49;15;15;
49644;PMS5003;36494;50.730;-1.932;2023-03-03T08:03:40;15;15;
49644;PMS5003;36494;50.730;-1.932;2023-03-03T08:06:08;14;14;
49644;PMS5003;36494;50.730;-1.932;2023-03-03T08:08:32;14;14;
49644;PMS5003;36494;50.730;-1.932;2023-03-03T08:10:57;16;16;
49644;PMS5003;36494;50.730;-1.932;2023-03-03T08:13:22;15;15;
49644;PMS5003;36494;50.730;-1.932;2023-03-03T08:15:48;18;17;
49644;PMS5003;36494;50.730;-1.932;2023-03-03T08:18:15;16;15;
49644;PMS5003;36494;50.730;-1.932;2023-03-03T08:20:42;16;15;
49644;PMS5003;36494;50.730;-1.932;2023-03-03T08:23:04;15;13;
49644;PMS5003;36494;50.730;-1.932;2023-03-03T08:25:29;15;14;
49644;PMS5003;36494;50.730;-1.932;2023-03-03T08:27:54;16;15;
49644;PMS5003;36494;50.730;-1.932;2023-03-03T08:30:20;13;13;
49644;PMS5003;36494;50.730;-1.932;2023-03-03T08:32:45;19;18;
49644;PMS5003;36494;50.730;-1.932;2023-03-03T08:35:10;17;16;
49644;PMS5003;36494;50.730;-1.932;2023-03-03T08:37:35;15;15;
49644;PMS5003;36494;50.730;-1.932;2023-03-03T08:40:01;13;12;
49644;PMS5003;36494;50.730;-1.932;2023-03-03T08:42:26;14;14;
49644;PMS5003;36494;50.730;-1.932;2023-03-03T08:44:52;13;13;
49644;PMS5003;36494;50.730;-1.932;2023-03-03T08:47:17;15;14;
49644;PMS5003;36494;50.730;-1.932;2023-03-03T08:49:43;15;14;
49644;PMS5003;36494;50.730;-1.932;2023-03-03T08:52:09;14;13;
49644;PMS5003;36494;50.730;-1.932;2023-03-03T08:54:34;19;17;
49644;PMS5003;36494;50.730;-1.932;2023-03-03T08:56:59;19;18;
49644;PMS5003;36494;50.730;-1.932;2023-03-03T08:59:25;16;15;
49644;PMS5003;36494;50.730;-1.932;2023-03-03T09:01:51;17;16;
49644;PMS5003;36494;50.730;-1.932;2023-03-03T09:04:16;19;16;
49644;PMS5003;36494;50.730;-1.932;2023-03-03T09:06:42;14;14;
49644;PMS5003;36494;50.730;-1.932;2023-03-03T09:09:08;14;13;
49644;PMS5003;36494;50.730;-1.932;2023-03-03T09:11:34;11;10;
49644;PMS5003;36494;50.730;-1.932;2023-03-03T09:14:03;14;13;
49644;PMS5003;36494;50.730;-1.932;2023-03-03T09:16:36;12;12;
49644;PMS5003;36494;50.730;-1.932;2023-03-03T09:18:50;13;13;
49644;PMS5003;36494;50.730;-1.932;2023-03-03T09:21:18;14;13;
49644;PMS5003;36494;50.730;-1.932;2023-03-03T09:23:42;14;13;
49644;PMS5003;36494;50.730;-1.932;2023-03-03T09:26:14;14;14;
49644;PMS5003;36494;50.730;-1.932;2023-03-03T09:28:32;12;11;
49644;PMS5003;36494;50.730;-1.932;2023-03-03T09:30:59;15;15;
49644;PMS5003;36494;50.730;-1.932;2023-03-03T09:33:25;13;13;
49644;PMS5003;36494;50.730;-1.932;2023-03-03T09:35:50;14;14;
49644;PMS5003;36494;50.730;-1.932;2023-03-03T09:38:18;13;12;
49644;PMS5003;36494;50.730;-1.932;2023-03-03T09:40:45;12;11;
49644;PMS5003;36494;50.730;-1.932;2023-03-03T09:43:05;14;14;
49644;PMS5003;36494;50.730;-1.932;2023-03-03T09:45:34;19;17;
49644;PMS5003;36494;50.730;-1.932;2023-03-03T09:50:25;12;12;
49644;PMS5003;36494;50.730;-1.932;2023-03-03T09:52:49;17;16;
49644;PMS5003;36494;50.730;-1.932;2023-03-03T09:55:17;13;13;
49644;PMS5003;36494;50.730;-1.932;2023-03-03T09:57:42;9;9;
49644;PMS5003;36494;50.730;-1.932;2023-03-03T10:00:08;11;11;
49644;PMS5003;36494;50.730;-1.932;2023-03-03T10:02:31;10;10;
49644;PMS5003;36494;50.730;-1.932;2023-03-03T10:04:58;11;11;
49644;PMS5003;36494;50.730;-1.932;2023-03-03T10:07:25;9;9;
49644;PMS5003;36494;50.730;-1.932;2023-03-03T10:09:51;13;11;
49644;PMS5003;36494;50.730;-1.932;2023-03-03T10:12:11;8;8;
49644;PMS5003;36494;50.730;-1.932;2023-03-03T10:14:40;11;10;
49644;PMS5003;36494;50.730;-1.932;2023-03-03T10:17:06;10;10;
49644;PMS5003;36494;50.730;-1.932;2023-03-03T10:19:31;9;8;
49644;PMS5003;36494;50.730;-1.932;2023-03-03T10:21:53;9;9;
49644;PMS5003;36494;50.730;-1.932;2023-03-03T10:24:21;8;8;
49644;PMS5003;36494;50.730;-1.932;2023-03-03T10:26:50;12;11;
49644;PMS5003;36494;50.730;-1.932;2023-03-03T10:29:11;9;9;
49644;PMS5003;36494;50.730;-1.932;2023-03-03T10:31:36;10;9;
49644;PMS5003;36494;50.730;-1.932;2023-03-03T10:34:01;10;10;
49644;PMS5003;36494;50.730;-1.932;2023-03-03T10:36:30;9;9;
49644;PMS5003;36494;50.730;-1.932;2023-03-03T10:38:51;12;11;
49644;PMS5003;36494;50.730;-1.932;2023-03-03T10:41:19;8;8;
49644;PMS5003;36494;50.730;-1.932;2023-03-03T10:43:44;10;10;
49644;PMS5003;36494;50.730;-1.932;2023-03-03T10:46:09;10;10;
49644;PMS5003;36494;50.730;-1.932;2023-03-03T10:48:35;9;9;
49644;PMS5003;36494;50.730;-1.932;2023-03-03T10:50:58;9;9;
49644;PMS5003;36494;50.730;-1.932;2023-03-03T10:53:25;10;9;
49644;PMS5003;36494;50.730;-1.932;2023-03-03T10:55:50;9;9;
49644;PMS5003;36494;50.730;-1.932;2023-03-03T10:58:19;9;9;
49644;PMS5003;36494;50.730;-1.932;2023-03-03T11:00:39;8;8;
49644;PMS5003;36494;50.730;-1.932;2023-03-03T11:05:31;7;7;
49644;PMS5003;36494;50.730;-1.932;2023-03-03T11:07:55;11;11;
49644;PMS5003;36494;50.730;-1.932;2023-03-03T11:10:23;8;8;
49644;PMS5003;36494;50.730;-1.932;2023-03-03T11:12:48;6;6;
49644;PMS5003;36494;50.730;-1.932;2023-03-03T11:15:19;10;10;
49644;PMS5003;36494;50.730;-1.932;2023-03-03T11:17:39;8;7;
49644;PMS5003;36494;50.730;-1.932;2023-03-03T11:20:02;9;8;
49644;PMS5003;36494;50.730;-1.932;2023-03-03T11:22:30;7;6;
49644;PMS5003;36494;50.730;-1.932;2023-03-03T11:24:54;10;9;
49644;PMS5003;36494;50.730;-1.932;2023-03-03T11:27:21;8;8;
49644;PMS5003;36494;50.730;-1.932;2023-03-03T11:29:47;6;6;
49644;PMS5003;36494;50.730;-1.932;2023-03-03T11:32:13;7;7;
49644;PMS5003;36494;50.730;-1.932;2023-03-03T11:37:00;9;8;
49644;PMS5003;36494;50.730;-1.932;2023-03-03T11:39:24;8;7;
49644;PMS5003;36494;50.730;-1.932;2023-03-03T11:41:53;11;10;
49644;PMS5003;36494;50.730;-1.932;2023-03-03T11:44:17;9;9;
49644;PMS5003;36494;50.730;-1.932;2023-03-03T11:46:43;7;6;
49644;PMS5003;36494;50.730;-1.932;2023-03-03T11:49:06;9;9;
49644;PMS5003;36494;50.730;-1.932;2023-03-03T11:51:33;9;8;
49644;PMS5003;36494;50.730;-1.932;2023-03-03T11:53:57;8;8;
49644;PMS5003;36494;50.730;-1.932;2023-03-03T11:56:22;10;10;
49644;PMS5003;36494;50.730;-1.932;2023-03-03T11:58:49;10;9;
49644;PMS5003;36494;50.730;-1.932;2023-03-03T12:01:14;7;7;
49644;PMS5003;36494;50.730;-1.932;2023-03-03T12:03:38;8;7;
49644;PMS5003;36494;50.730;-1.932;2023-03-03T12:06:07;9;8;
49644;PMS5003;36494;50.730;-1.932;2023-03-03T12:08:32;7;7;
49644;PMS5003;36494;50.730;-1.932;2023-03-03T12:10:54;7;7;
49644;PMS5003;36494;50.730;-1.932;2023-03-03T12:13:20;9;9;
49644;PMS5003;36494;50.730;-1.932;2023-03-03T12:15:45;9;9;
49644;PMS5003;36494;50.730;-1.932;2023-03-03T12:18:15;8;8;
49644;PMS5003;36494;50.730;-1.932;2023-03-03T12:20:37;9;9;
49644;PMS5003;36494;50.730;-1.932;2023-03-03T12:23:08;9;9;
49644;PMS5003;36494;50.730;-1.932;2023-03-03T12:25:29;9;8;
49644;PMS5003;36494;50.730;-1.932;2023-03-03T12:27:53;9;8;
49644;PMS5003;36494;50.730;-1.932;2023-03-03T12:30:19;7;7;
49644;PMS5003;36494;50.730;-1.932;2023-03-03T12:32:47;9;8;
49644;PMS5003;36494;50.730;-1.932;2023-03-03T12:35:09;8;8;
49644;PMS5003;36494;50.730;-1.932;2023-03-03T12:40:02;8;8;
49644;PMS5003;36494;50.730;-1.932;2023-03-03T12:42:27;8;7;
49644;PMS5003;36494;50.730;-1.932;2023-03-03T12:44:50;7;7;
49644;PMS5003;36494;50.730;-1.932;2023-03-03T12:47:14;6;6;
49644;PMS5003;36494;50.730;-1.932;2023-03-03T12:49:41;7;7;
49644;PMS5003;36494;50.730;-1.932;2023-03-03T12:52:07;8;8;
49644;PMS5003;36494;50.730;-1.932;2023-03-03T12:54:33;7;7;
49644;PMS5003;36494;50.730;-1.932;2023-03-03T12:56:56;6;6;
49644;PMS5003;36494;50.730;-1.932;2023-03-03T12:59:24;9;9;
49644;PMS5003;36494;50.730;-1.932;2023-03-03T13:01:56;11;10;
49644;PMS5003;36494;50.730;-1.932;2023-03-03T13:04:12;8;7;
49644;PMS5003;36494;50.730;-1.932;2023-03-03T13:06:37;11;10;
49644;PMS5003;36494;50.730;-1.932;2023-03-03T13:09:06;8;8;
49644;PMS5003;36494;50.730;-1.932;2023-03-03T13:11:31;10;9;
49644;PMS5003;36494;50.730;-1.932;2023-03-03T13:13:52;8;8;
49644;PMS5003;36494;50.730;-1.932;2023-03-03T13:16:19;9;9;
49644;PMS5003;36494;50.730;-1.932;2023-03-03T13:18:47;9;9;
49644;PMS5003;36494;50.730;-1.932;2023-03-03T13:21:09;10;10;
49644;PMS5003;36494;50.730;-1.932;2023-03-03T13:23:37;10;10;
49644;PMS5003;36494;50.730;-1.932;2023-03-03T13:25:59;8;8;
49644;PMS5003;36494;50.730;-1.932;2023-03-03T13:28:26;9;8;
49644;PMS5003;36494;50.730;-1.932;2023-03-03T13:30:50;9;9;
49644;PMS5003;36494;50.730;-1.932;2023-03-03T13:33:16;13;12;
49644;PMS5003;36494;50.730;-1.932;2023-03-03T13:35:41;14;14;
49644;PMS5003;36494;50.730;-1.932;2023-03-03T13:38:05;15;15;
49644;PMS5003;36494;50.730;-1.932;2023-03-03T13:40:35;13;13;
49644;PMS5003;36494;50.730;-1.932;2023-03-03T13:42:56;14;14;
49644;PMS5003;36494;50.730;-1.932;2023-03-03T13:45:22;13;13;
49644;PMS5003;36494;50.730;-1.932;2023-03-03T13:47:47;15;14;
49644;PMS5003;36494;50.730;-1.932;2023-03-03T13:50:16;14;14;
49644;PMS5003;36494;50.730;-1.932;2023-03-03T13:52:38;15;14;
49644;PMS5003;36494;50.730;-1.932;2023-03-03T13:55:08;14;14;
49644;PMS5003;36494;50.730;-1.932;2023-03-03T13:57:33;14;14;
49644;PMS5003;36494;50.730;-1.932;2023-03-03T13:59:56;16;15;
49644;PMS5003;36494;50.730;-1.932;2023-03-03T14:02:23;13;13;
49644;PMS5003;36494;50.730;-1.932;2023-03-03T14:04:45;11;10;
49644;PMS5003;36494;50.730;-1.932;2023-03-03T14:07:10;15;14;
49644;PMS5003;36494;50.730;-1.932;2023-03-03T14:09:38;12;12;
49644;PMS5003;36494;50.730;-1.932;2023-03-03T14:12:03;12;11;
49644;PMS5003;36494;50.730;-1.932;2023-03-03T14:14:29;9;9;
49644;PMS5003;36494;50.730;-1.932;2023-03-03T14:16:51;13;12;
49644;PMS5003;36494;50.730;-1.932;2023-03-03T14:19:17;15;14;
49644;PMS5003;36494;50.730;-1.932;2023-03-03T14:21:43;10;10;
49644;PMS5003;36494;50.730;-1.932;2023-03-03T14:24:10;12;12;
49644;PMS5003;36494;50.730;-1.932;2023-03-03T14:29:04;12;12;
49644;PMS5003;36494;50.730;-1.932;2023-03-03T14:31:24;12;12;
49644;PMS5003;36494;50.730;-1.932;2023-03-03T14:33:57;14;13;
49644;PMS5003;36494;50.730;-1.932;2023-03-03T14:36:14;13;13;
49644;PMS5003;36494;50.730;-1.932;2023-03-03T14:38:43;14;13;
49644;PMS5003;36494;50.730;-1.932;2023-03-03T14:41:10;13;13;
49644;PMS5003;36494;50.730;-1.932;2023-03-03T14:43:32;14;13;
49644;PMS5003;36494;50.730;-1.932;2023-03-03T14:45:55;14;14;
49644;PMS5003;36494;50.730;-1.932;2023-03-03T14:48:21;14;13;
49644;PMS5003;36494;50.730;-1.932;2023-03-03T14:50:48;14;14;
49644;PMS5003;36494;50.730;-1.932;2023-03-03T14:53:13;12;12;
49644;PMS5003;36494;50.730;-1.932;2023-03-03T14:55:38;15;14;
49644;PMS5003;36494;50.730;-1.932;2023-03-03T14:58:02;14;14;
49644;PMS5003;36494;50.730;-1.932;2023-03-03T15:00:29;13;13;
49644;PMS5003;36494;50.730;-1.932;2023-03-03T15:02:57;13;11;
49644;PMS5003;36494;50.730;-1.932;2023-03-03T15:05:20;17;16;
49644;PMS5003;36494;50.730;-1.932;2023-03-03T15:07:45;14;12;
49644;PMS5003;36494;50.730;-1.932;2023-03-03T15:10:09;10;10;
49644;PMS5003;36494;50.730;-1.932;2023-03-03T15:12:35;13;11;
49644;PMS5003;36494;50.730;-1.932;2023-03-03T15:15:03;10;10;
49644;PMS5003;36494;50.730;-1.932;2023-03-03T15:17:26;12;11;
49644;PMS5003;36494;50.730;-1.932;2023-03-03T15:19:59;9;9;
49644;PMS5003;36494;50.730;-1.932;2023-03-03T15:22:18;12;11;
49644;PMS5003;36494;50.730;-1.932;2023-03-03T15:24:43;11;11;
49644;PMS5003;36494;50.730;-1.932;2023-03-03T15:27:08;13;13;
49644;PMS5003;36494;50.730;-1.932;2023-03-03T15:29:34;10;10;
49644;PMS5003;36494;50.730;-1.932;2023-03-03T15:31:59;9;9;
49644;PMS5003;36494;50.730;-1.932;2023-03-03T15:34:25;7;7;
49644;PMS5003;36494;50.730;-1.932;2023-03-03T15:36:49;10;10;
49644;PMS5003;36494;50.730;-1.932;2023-03-03T15:39:16;13;12;
49644;PMS5003;36494;50.730;-1.932;2023-03-03T15:41:40;10;10;
49644;PMS5003;36494;50.730;-1.932;2023-03-03T15:44:09;14;14;
49644;PMS5003;36494;50.730;-1.932;2023-03-03T15:46:32;10;10;
49644;PMS5003;36494;50.730;-1.932;2023-03-03T15:48:59;11;11;
49644;PMS5003;36494;50.730;-1.932;2023-03-03T15:51:24;10;10;
49644;PMS5003;36494;50.730;-1.932;2023-03-03T15:53:53;9;9;
49644;PMS5003;36494;50.730;-1.932;2023-03-03T15:56:14;12;12;
49644;PMS5003;36494;50.730;-1.932;2023-03-03T15:58:42;11;10;
49644;PMS5003;36494;50.730;-1.932;2023-03-03T16:01:04;11;11;
49644;PMS5003;36494;50.730;-1.932;2023-03-03T16:03:29;9;9;
49644;PMS5003;36494;50.730;-1.932;2023-03-03T16:05:54;10;10;
49644;PMS5003;36494;50.730;-1.932;2023-03-03T16:08:21;9;9;